Niagara Falls International Airport Niagara Falls US
ICAO: KIAG
IATA: IAG
Category: Medium
Scheduled Services: No

Elevation: 589 ft
TransAlt. 18000 ft.

Airport Communications:
BUFFALO APP/DEP:126.5
ATIS:120.8
CLNC DEL:119.25
CTAF:118.5
GND:121.7
ANG OPS:26.19
914 AW COMD POST:34.002
PTD:37.22
TWR:118.5
UNICOM:122.95

KIAG Zoom In..

Runways:

(A) RW 06 length 5188 ft width 150 ft
---- / hdg 60

(B) RW 10L length 9829 ft width 150 ft
---- / hdg 100

(C) RW 10R length 3973 ft width 75 ft
---- / hdg 100

(D) RW 24 length 5188 ft width 150 ft
---- / hdg 240

(E) RW 28L length 3973 ft width 75 ft
---- / hdg 280

(F) RW 28R length 9829 ft width 150 ft
ILS 110.10 / hdg 280

Location; KIAG
Day. 23 / Time. 14.53 Zulu
* Altimeter: 29.49
* Temperature: 09° c. 48.2°f.
* Wind from: 210° Speed 13 kn.
Dewpoint: 04° c.
Visibility: 10 Statute Miles.
Clouds: Overcast 8000 ft.

KIAG 231453Z 21013KT 10SM OVC080 09/04 A2949 RMK AO2 SLP995 T00890044 58009


Wind From 210°
Speed 13 kn.

YouTube Music Video
 
jpsmedia.com for Web Design  worldairports.se 2018   terms of use